Time;durP1;ratioP1;P1;durP2;ratioP2;P2;SDS_P1;SDS_P2;PMS_P1;PMS_P2;Temp;Humidity;BMP_temperature;BMP_pressure;BME280_temperature;BME280_humidity;BME280_pressure;Samples;Min_cycle;Max_cycle;Signal;HPM_P1;HPM_P2
2022/10/15 00:02:23;;;;;;;12.10;6.70;;;;;;;42.67;32.22;101166.53;5098437;28;20471;-74
2022/10/15 00:04:49;;;;;;;9.33;5.90;;;;;;;42.67;32.48;101167.31;5098547;28;20461;-73
2022/10/15 00:07:15;;;;;;;11.30;5.97;;;;;;;42.53;32.93;101169.44;5098492;28;20423;-71
2022/10/15 00:09:41;;;;;;;13.83;6.27;;;;;;;42.40;32.91;101166.66;5098109;28;20478;-72
2022/10/15 00:12:07;;;;;;;10.87;5.10;;;;;;;42.51;32.76;101160.81;5098379;28;20423;-72
2022/10/15 00:14:33;;;;;;;18.17;7.40;;;;;;;42.61;32.95;101155.00;5116960;28;20407;-71
2022/10/15 00:16:59;;;;;;;14.97;6.60;;;;;;;42.38;32.71;101147.09;5098769;28;20416;-70
2022/10/15 00:19:25;;;;;;;10.17;5.43;;;;;;;42.22;33.03;101148.00;5098177;28;20435;-71
2022/10/15 00:21:51;;;;;;;16.10;5.57;;;;;;;42.51;32.63;101144.44;5098012;28;20605;-71
2022/10/15 00:24:17;;;;;;;8.60;4.90;;;;;;;42.38;33.02;101138.91;5098396;28;20446;-71
2022/10/15 00:26:43;;;;;;;12.90;6.43;;;;;;;42.13;33.56;101135.19;5098059;28;20451;-71
2022/10/15 00:29:12;;;;;;;15.10;4.30;;;;;;;42.46;33.00;101131.81;5097955;28;20447;-71
2022/10/15 00:31:38;;;;;;;12.63;5.00;;;;;;;42.47;32.94;101127.94;5097971;28;20502;-71
2022/10/15 00:34:04;;;;;;;9.67;4.20;;;;;;;42.63;33.03;101120.78;5097929;28;20550;-72
2022/10/15 00:36:34;;;;;;;10.90;4.33;;;;;;;42.50;33.45;101110.94;5097946;28;20424;-71
2022/10/15 00:39:01;;;;;;;19.97;6.03;;;;;;;42.56;32.99;101109.59;5097879;28;20435;-71
2022/10/15 00:41:30;;;;;;;11.90;4.67;;;;;;;42.40;33.02;101109.38;5097682;28;20488;-71
2022/10/15 00:43:59;;;;;;;29.43;6.40;;;;;;;42.44;33.08;101114.19;5097427;28;20479;-74
2022/10/15 00:46:28;;;;;;;10.87;5.13;;;;;;;42.47;32.84;101108.06;5097598;28;20423;-73
2022/10/15 00:49:02;;;;;;;13.00;5.40;;;;;;;42.56;32.50;101101.41;5097917;28;20445;-73
2022/10/15 00:51:35;;;;;;;9.47;4.87;;;;;;;42.48;32.35;101085.94;5116133;28;20483;-72
2022/10/15 00:54:01;;;;;;;10.10;4.83;;;;;;;42.25;32.35;101081.91;5116338;28;20424;-72
2022/10/15 00:56:30;;;;;;;8.77;6.63;;;;;;;42.50;32.40;101083.66;5097482;28;20419;-71
2022/10/15 00:58:57;;;;;;;18.90;8.03;;;;;;;42.38;32.91;101087.09;5084731;28;20829;-73
2022/10/15 01:01:24;;;;;;;18.03;5.30;;;;;;;42.26;32.85;101080.78;5077439;28;20507;-73
2022/10/15 01:03:54;;;;;;;10.37;4.07;;;;;;;42.30;33.23;101079.81;5076976;28;20982;-72
2022/10/15 01:06:21;;;;;;;9.23;6.23;;;;;;;42.42;32.98;101067.34;5076540;28;20473;-73
2022/10/15 01:08:47;;;;;;;11.87;6.00;;;;;;;42.35;33.05;101062.41;5077178;28;20421;-73
2022/10/15 01:11:31;;;;;;;15.80;7.63;;;;;;;42.43;32.91;101067.03;5076862;28;20417;-71
2022/10/15 01:14:17;;;;;;;14.00;6.23;;;;;;;42.40;32.99;101059.50;5076718;28;20413;-71
2022/10/15 01:16:54;;;;;;;11.63;5.30;;;;;;;42.29;33.07;101048.19;5077029;28;20427;-72
2022/10/15 01:19:48;;;;;;;7.40;4.80;;;;;;;42.40;32.93;101049.38;5076857;28;20421;-70
2022/10/15 01:22:29;;;;;;;12.13;5.33;;;;;;;42.38;33.13;101048.13;5076619;28;20456;-71
2022/10/15 01:25:13;;;;;;;15.93;5.90;;;;;;;42.52;33.05;101048.66;5076616;28;20458;-71
2022/10/15 01:27:54;;;;;;;8.77;5.13;;;;;;;42.70;32.51;101054.78;5076631;28;20409;-71
2022/10/15 01:30:41;;;;;;;12.97;7.03;;;;;;;42.58;33.05;101058.25;5076561;28;20425;-71
2022/10/15 01:33:27;;;;;;;11.10;5.40;;;;;;;42.32;32.94;101057.66;5094904;28;20443;-71
2022/10/15 01:36:05;;;;;;;12.30;6.37;;;;;;;42.54;32.98;101057.31;5095040;28;20466;-71
2022/10/15 01:38:55;;;;;;;7.93;4.70;;;;;;;42.61;32.51;101052.16;5076497;28;20481;-71
2022/10/15 01:41:24;;;;;;;12.70;4.83;;;;;;;42.32;33.16;101053.00;5076312;28;20508;-70
2022/10/15 01:44:05;;;;;;;10.40;6.30;;;;;;;42.42;32.45;101046.34;5094497;28;20486;-71
2022/10/15 01:46:44;;;;;;;11.73;5.97;;;;;;;42.45;32.90;101050.34;5076192;28;20424;-71
2022/10/15 01:49:13;;;;;;;13.20;5.30;;;;;;;42.50;32.76;101045.47;5076258;28;20416;-71
2022/10/15 01:51:42;;;;;;;8.30;4.37;;;;;;;42.66;32.69;101045.66;5076035;28;20421;-70
2022/10/15 01:54:13;;;;;;;12.60;4.70;;;;;;;42.77;32.58;101048.78;5059748;28;20413;-71
2022/10/15 01:56:45;;;;;;;10.70;6.43;;;;;;;42.15;33.52;101039.44;5075978;28;20431;-71
2022/10/15 01:59:12;;;;;;;8.80;4.30;;;;;;;42.49;32.89;101037.63;5075972;28;20842;-71
2022/10/15 02:01:42;;;;;;;17.23;5.10;;;;;;;42.51;32.87;101038.88;5075901;28;20413;-71
2022/10/15 02:04:24;;;;;;;11.63;6.50;;;;;;;42.20;33.32;101031.13;5075834;28;20483;-71
2022/10/15 02:06:57;;;;;;;11.60;6.03;;;;;;;42.61;32.90;101043.16;5075808;28;20476;-71
2022/10/15 02:09:48;;;;;;;11.33;5.70;;;;;;;42.33;33.21;101035.50;5075814;28;20408;-71
2022/10/15 02:12:33;;;;;;;14.10;5.93;;;;;;;42.62;33.03;101042.03;5092696;28;20543;-71
2022/10/15 02:15:11;;;;;;;9.37;5.60;;;;;;;42.67;33.09;101044.56;5075562;28;20423;-71
2022/10/15 02:17:48;;;;;;;9.30;4.53;;;;;;;42.69;33.21;101047.75;5091684;28;20504;-71
2022/10/15 02:20:27;;;;;;;12.23;7.23;;;;;;;42.69;32.83;101047.75;5075870;28;20425;-71
2022/10/15 02:22:58;;;;;;;11.93;8.40;;;;;;;42.76;33.02;101041.75;5075427;28;20461;-71
2022/10/15 02:25:26;;;;;;;8.20;6.17;;;;;;;42.63;33.21;101043.63;5075495;28;20416;-71
2022/10/15 02:27:55;;;;;;;12.77;7.53;;;;;;;42.70;33.03;101034.91;5075366;28;20945;-71
2022/10/15 02:30:22;;;;;;;19.43;7.67;;;;;;;42.74;32.83;101042.09;5075258;28;20421;-71
2022/10/15 02:32:52;;;;;;;20.90;8.37;;;;;;;42.71;33.06;101044.66;5058658;28;20413;-71
2022/10/15 02:35:20;;;;;;;18.53;9.33;;;;;;;42.61;32.97;101038.50;5075210;28;20433;-71
2022/10/15 02:37:50;;;;;;;19.13;8.83;;;;;;;42.34;33.62;101042.53;5075227;28;20954;-71
2022/10/15 02:40:16;;;;;;;13.23;9.57;;;;;;;42.48;33.32;101041.47;5093631;28;20874;-71
2022/10/15 02:42:42;;;;;;;17.47;7.80;;;;;;;42.31;33.55;101026.88;5058154;28;20856;-71
2022/10/15 02:45:08;;;;;;;15.50;7.83;;;;;;;42.23;33.42;101035.09;5093750;28;20413;-71
2022/10/15 02:47:34;;;;;;;11.47;7.33;;;;;;;42.33;33.68;101023.78;5075063;28;20916;-71
2022/10/15 02:50:01;;;;;;;15.57;7.67;;;;;;;42.45;33.47;101032.03;5075032;28;20439;-71
2022/10/15 02:52:27;;;;;;;18.73;8.17;;;;;;;42.27;33.56;101030.59;5074926;28;20409;-72
2022/10/15 02:54:53;;;;;;;17.63;8.70;;;;;;;41.77;34.19;101029.44;5074849;28;20451;-71
2022/10/15 02:57:19;;;;;;;12.93;7.70;;;;;;;41.78;34.33;101032.97;5074920;28;20456;-71
2022/10/15 02:59:45;;;;;;;19.63;7.97;;;;;;;42.14;34.30;101035.94;5074890;28;20429;-71
2022/10/15 03:02:11;;;;;;;14.90;9.17;;;;;;;41.67;34.53;101027.06;5075130;28;20424;-71
2022/10/15 03:04:36;;;;;;;15.50;8.20;;;;;;;42.14;34.07;101040.59;5074846;28;20440;-71
2022/10/15 03:07:02;;;;;;;11.03;7.53;;;;;;;42.22;33.96;101034.28;5075002;28;20512;-72
2022/10/15 03:09:28;;;;;;;11.37;6.57;;;;;;;42.02;33.94;101035.06;5075366;28;20496;-71
2022/10/15 03:11:54;;;;;;;13.00;6.97;;;;;;;41.96;34.01;101015.38;5057956;28;20804;-71
2022/10/15 03:14:20;;;;;;;9.03;6.30;;;;;;;42.16;33.75;101005.63;5058190;28;20448;-70
2022/10/15 03:16:46;;;;;;;12.13;6.80;;;;;;;42.33;33.61;101012.88;5093067;28;20932;-71
2022/10/15 03:19:12;;;;;;;19.77;7.77;;;;;;;42.05;34.18;101007.97;5074638;28;20433;-71
2022/10/15 03:21:38;;;;;;;12.37;7.67;;;;;;;42.07;33.64;101013.06;5058074;28;20920;-71
2022/10/15 03:24:04;;;;;;;22.80;9.47;;;;;;;41.89;34.24;101006.94;5093130;28;20456;-71
2022/10/15 03:26:30;;;;;;;13.87;7.57;;;;;;;42.17;33.83;101017.34;5074587;28;20864;-71
2022/10/15 03:28:56;;;;;;;12.00;6.63;;;;;;;42.26;33.70;101013.44;5074712;28;20499;-71
2022/10/15 03:31:22;;;;;;;22.13;7.83;;;;;;;42.06;33.82;101009.53;5092871;28;20916;-71
2022/10/15 03:33:48;;;;;;;19.33;7.57;;;;;;;41.92;34.07;101008.97;5074751;28;20957;-71
2022/10/15 03:36:14;;;;;;;11.30;6.83;;;;;;;42.04;34.20;101011.00;5074452;28;20441;-71
2022/10/15 03:38:40;;;;;;;11.50;7.20;;;;;;;41.86;34.20;101000.19;5074472;28;20424;-71
2022/10/15 03:41:06;;;;;;;14.67;7.17;;;;;;;41.85;34.37;101014.16;5074530;28;20428;-71
2022/10/15 03:43:32;;;;;;;12.60;8.27;;;;;;;41.88;34.14;101016.25;5045454;28;20580;-71
2022/10/15 03:46:03;;;;;;;17.57;8.03;;;;;;;41.46;34.99;101026.19;5034502;28;20518;-71
2022/10/15 03:48:29;;;;;;;13.73;6.73;;;;;;;41.46;34.58;101020.75;5052552;28;20485;-71
2022/10/15 03:50:56;;;;;;;12.37;7.63;;;;;;;41.73;34.33;101036.63;5051052;28;20513;-71
2022/10/15 03:53:23;;;;;;;12.20;7.23;;;;;;;41.36;35.09;101030.06;5050941;28;20521;-71
2022/10/15 03:55:49;;;;;;;10.00;6.73;;;;;;;41.61;34.69;101031.09;5050946;28;20949;-71
2022/10/15 03:58:15;;;;;;;14.73;7.87;;;;;;;40.91;35.86;101041.38;5057450;28;20446;-71
2022/10/15 04:00:42;;;;;;;16.50;6.47;;;;;;;41.29;35.02;101049.59;5070920;28;20492;-71
2022/10/15 04:03:08;;;;;;;11.70;8.37;;;;;;;41.47;34.88;101044.94;5070837;28;20453;-71
2022/10/15 04:05:34;;;;;;;11.73;7.90;;;;;;;41.35;35.27;101047.53;5071254;28;20417;-71
2022/10/15 04:08:00;;;;;;;17.43;9.63;;;;;;;41.05;35.49;101043.91;5072255;28;20503;-73
2022/10/15 04:10:25;;;;;;;14.43;7.10;;;;;;;41.27;34.83;101049.13;5070835;28;20431;-73
2022/10/15 04:12:51;;;;;;;13.57;7.90;;;;;;;41.25;35.15;101045.97;5070688;28;20410;-73
2022/10/15 04:15:17;;;;;;;16.10;9.07;;;;;;;41.61;34.81;101052.88;5070661;28;20524;-73
2022/10/15 04:17:43;;;;;;;15.03;8.63;;;;;;;41.30;35.00;101053.91;5070804;28;20414;-73
2022/10/15 04:20:10;;;;;;;17.43;8.30;;;;;;;41.80;34.27;101061.47;5070716;28;20423;-73
2022/10/15 04:22:36;;;;;;;17.60;8.97;;;;;;;41.16;35.30;101055.25;5070663;28;20466;-73
2022/10/15 04:25:03;;;;;;;15.63;8.33;;;;;;;41.63;34.46;101053.38;5072224;28;20406;-73
2022/10/15 04:27:29;;;;;;;20.93;8.70;;;;;;;41.05;35.20;101057.50;5072134;28;20469;-73
2022/10/15 04:29:55;;;;;;;14.20;9.57;;;;;;;41.26;35.07;101063.09;5070702;28;20417;-71
2022/10/15 04:32:21;;;;;;;15.90;8.33;;;;;;;41.39;34.47;101051.22;5070691;28;20456;-71
2022/10/15 04:34:47;;;;;;;19.63;11.53;;;;;;;41.40;34.87;101060.19;5070789;28;20449;-71
2022/10/15 04:37:13;;;;;;;25.47;9.70;;;;;;;41.42;34.75;101066.09;5070502;28;20496;-71
2022/10/15 04:39:39;;;;;;;17.10;10.90;;;;;;;41.46;34.44;101056.94;5071259;28;20422;-71
2022/10/15 04:42:05;;;;;;;20.80;11.50;;;;;;;41.34;34.61;101056.84;5073428;28;20449;-71
2022/10/15 04:44:31;;;;;;;18.13;11.67;;;;;;;41.15;35.33;101067.28;5073919;28;20473;-71
2022/10/15 04:46:57;;;;;;;17.27;10.97;;;;;;;41.26;35.02;101069.31;5074154;28;20953;-71
2022/10/15 04:49:23;;;;;;;24.70;12.10;;;;;;;41.42;34.68;101066.09;5075687;28;20403;-71
2022/10/15 04:51:49;;;;;;;13.63;9.13;;;;;;;41.43;34.79;101060.31;5074223;28;20429;-74
2022/10/15 04:54:15;;;;;;;20.43;10.90;;;;;;;41.20;35.09;101069.81;5073978;28;20479;-73
2022/10/15 04:56:41;;;;;;;14.00;10.80;;;;;;;41.12;35.31;101065.97;5073887;28;20811;-73
2022/10/15 04:59:07;;;;;;;20.03;11.33;;;;;;;41.22;35.21;101073.00;5059917;28;20974;-73
2022/10/15 05:01:33;;;;;;;13.47;11.13;;;;;;;40.52;35.42;101075.78;5053836;28;20953;-73
2022/10/15 05:03:59;;;;;;;16.33;10.73;;;;;;;41.08;35.13;101071.28;5053666;28;20537;-73
2022/10/15 05:06:25;;;;;;;19.23;14.57;;;;;;;41.13;34.86;101066.78;5053910;28;20430;-71
2022/10/15 05:08:52;;;;;;;15.80;10.73;;;;;;;41.14;34.89;101071.91;5053923;28;20537;-70
2022/10/15 05:11:23;;;;;;;14.00;10.53;;;;;;;41.25;34.59;101078.63;5053622;28;20508;-71
2022/10/15 05:13:50;;;;;;;19.17;11.33;;;;;;;41.22;34.59;101081.97;5055254;28;20403;-71
2022/10/15 05:16:25;;;;;;;17.80;11.87;;;;;;;41.04;35.10;101080.41;5055066;28;20544;-71
2022/10/15 05:18:54;;;;;;;20.90;11.60;;;;;;;40.84;35.38;101072.91;5020738;28;20929;-71
2022/10/15 05:21:20;;;;;;;15.33;12.17;;;;;;;40.96;35.34;101087.47;5053623;28;20423;-71
2022/10/15 05:23:48;;;;;;;12.63;9.23;;;;;;;40.62;35.35;101085.53;5053573;28;20466;-71
2022/10/15 05:26:18;;;;;;;15.73;10.47;;;;;;;40.24;36.01;101088.81;5054869;28;20418;-73
2022/10/15 05:28:45;;;;;;;16.83;10.93;;;;;;;40.44;35.92;101094.75;5053267;28;20411;-73
2022/10/15 05:31:21;;;;;;;22.33;10.60;;;;;;;40.68;35.43;101089.69;5053261;28;20415;-73
2022/10/15 05:33:50;;;;;;;16.83;13.00;;;;;;;40.66;35.62;101089.22;5053231;28;20434;-73
2022/10/15 05:36:22;;;;;;;19.90;13.00;;;;;;;39.93;36.62;101093.50;5053144;28;20415;-72
2022/10/15 05:38:56;;;;;;;23.50;10.10;;;;;;;40.43;35.86;101088.53;5054801;28;20546;-73
2022/10/15 05:41:24;;;;;;;29.60;10.30;;;;;;;40.50;35.33;101088.88;5052933;28;20421;-70
2022/10/15 05:43:53;;;;;;;20.20;10.17;;;;;;;40.50;35.53;101097.03;5047366;28;20565;-71
2022/10/15 05:46:19;;;;;;;13.83;10.87;;;;;;;40.01;36.39;101101.66;5074248;28;20445;-71
2022/10/15 05:48:50;;;;;;;17.53;11.27;;;;;;;40.67;35.57;101106.31;5074421;28;20548;-71
2022/10/15 05:51:16;;;;;;;14.53;10.27;;;;;;;40.35;35.78;101104.84;5072739;28;20421;-70
2022/10/15 05:53:44;;;;;;;20.03;11.83;;;;;;;40.58;35.34;101114.50;5083759;28;20444;-72
2022/10/15 05:56:12;;;;;;;17.23;10.20;;;;;;;40.04;36.18;101122.03;5073898;28;20972;-71
2022/10/15 05:58:38;;;;;;;23.50;11.67;;;;;;;40.95;34.92;101106.84;5081686;28;20429;-70
2022/10/15 06:01:07;;;;;;;15.37;11.03;;;;;;;41.05;34.52;101111.94;5093938;28;20439;-71
2022/10/15 06:03:33;;;;;;;19.27;10.90;;;;;;;41.20;34.22;101116.09;5080441;28;20504;-71
2022/10/15 06:05:59;;;;;;;19.90;12.10;;;;;;;41.18;34.10;101116.41;5072177;28;20446;-70
2022/10/15 06:08:27;;;;;;;14.27;11.70;;;;;;;40.57;34.92;101123.75;5072198;28;20430;-71
2022/10/15 06:10:55;;;;;;;15.73;11.07;;;;;;;40.88;34.98;101122.78;5072076;28;20497;-71
2022/10/15 06:13:21;;;;;;;16.63;10.93;;;;;;;40.97;34.60;101132.59;5071573;28;20504;-70
2022/10/15 06:15:47;;;;;;;19.87;11.83;;;;;;;41.09;34.67;101134.69;5072026;28;20891;-70
2022/10/15 06:18:16;;;;;;;16.13;10.07;;;;;;;40.85;34.38;101129.69;5073368;28;20497;-71
2022/10/15 06:20:43;;;;;;;13.20;11.00;;;;;;;40.34;35.58;101127.69;5073284;28;20398;-70
2022/10/15 06:23:10;;;;;;;19.83;11.97;;;;;;;40.25;35.62;101128.47;5071829;28;20473;-71
2022/10/15 06:25:37;;;;;;;20.50;11.50;;;;;;;40.46;35.79;101136.03;5072184;28;20917;-71
2022/10/15 06:28:04;;;;;;;17.07;11.30;;;;;;;40.36;35.30;101136.34;5071640;28;20464;-71
2022/10/15 06:30:31;;;;;;;28.43;14.00;;;;;;;40.82;35.06;101149.34;5076726;28;20429;-72
2022/10/15 06:32:58;;;;;;;44.57;14.40;;;;;;;40.31;36.04;101144.63;5082035;28;20456;-71
2022/10/15 06:35:25;;;;;;;16.90;13.33;;;;;;;40.76;34.98;101146.03;5083306;28;20474;-71
2022/10/15 06:37:52;;;;;;;16.00;12.10;;;;;;;40.99;34.60;101156.75;5084284;28;20469;-72
2022/10/15 06:40:18;;;;;;;20.60;14.80;;;;;;;40.60;35.08;101150.31;5082905;28;20413;-72
2022/10/15 06:42:44;;;;;;;36.77;24.87;;;;;;;40.03;36.26;101159.22;5084307;28;20471;-72
2022/10/15 06:45:10;;;;;;;30.90;24.40;;;;;;;40.38;35.92;101159.34;5103961;28;20507;-73
2022/10/15 06:47:38;;;;;;;22.90;14.27;;;;;;;40.53;35.73;101164.38;5085042;28;20535;-72
2022/10/15 06:50:05;;;;;;;22.47;13.53;;;;;;;40.57;35.39;101158.28;5084224;28;20801;-71
2022/10/15 06:52:31;;;;;;;26.03;13.70;;;;;;;39.79;37.02;101168.88;5087790;28;20464;-70
2022/10/15 06:54:58;;;;;;;31.23;18.10;;;;;;;40.18;36.29;101174.31;5087564;28;20817;-72
2022/10/15 06:57:26;;;;;;;21.43;13.97;;;;;;;39.98;36.32;101177.59;5086666;28;20412;-75
2022/10/15 06:59:53;;;;;;;30.43;13.53;;;;;;;39.81;36.90;101166.63;5083833;28;20936;-72
2022/10/15 07:02:19;;;;;;;21.40;13.27;;;;;;;40.18;35.97;101170.81;5094618;28;20444;-72
2022/10/15 07:04:46;;;;;;;16.93;11.87;;;;;;;40.31;35.59;101175.31;5094371;28;20523;-73
2022/10/15 07:07:12;;;;;;;21.17;12.80;;;;;;;40.11;35.83;101179.41;5094988;28;20495;-72
2022/10/15 07:09:38;;;;;;;22.23;11.93;;;;;;;39.98;36.00;101181.09;5094929;28;20424;-71
2022/10/15 07:12:05;;;;;;;15.80;12.70;;;;;;;40.42;35.82;101175.84;5094398;28;20521;-73
2022/10/15 07:14:31;;;;;;;28.57;14.43;;;;;;;40.35;35.58;101176.31;5083824;28;20549;-72
2022/10/15 07:16:58;;;;;;;23.13;14.10;;;;;;;40.37;35.74;101173.25;5092267;28;20435;-70
2022/10/15 07:19:25;;;;;;;22.57;15.30;;;;;;;40.89;34.91;101181.56;5088032;28;20854;-71
2022/10/15 07:21:51;;;;;;;20.53;13.50;;;;;;;39.93;36.75;101196.72;5074678;28;20504;-70
2022/10/15 07:24:17;;;;;;;26.23;13.13;;;;;;;40.14;35.89;101177.97;5092925;28;20544;-71
2022/10/15 07:26:43;;;;;;;19.83;12.93;;;;;;;40.60;34.87;101176.72;5082392;28;20424;-71
2022/10/15 07:29:09;;;;;;;17.93;11.40;;;;;;;40.44;35.12;101182.56;5085196;28;20496;-69
2022/10/15 07:31:35;;;;;;;26.80;13.47;;;;;;;40.77;35.08;101174.81;5100307;28;20761;-69
2022/10/15 07:34:01;;;;;;;18.90;13.30;;;;;;;40.74;34.91;101178.16;5100175;28;20420;-69
2022/10/15 07:36:27;;;;;;;26.30;13.60;;;;;;;40.34;36.16;101180.16;5088909;28;20419;-70
2022/10/15 07:38:53;;;;;;;23.03;12.03;;;;;;;39.72;36.54;101174.75;5095547;28;20451;-70
2022/10/15 07:41:19;;;;;;;16.33;11.93;;;;;;;39.46;36.94;101188.09;5074451;28;20431;-70
2022/10/15 07:43:45;;;;;;;23.90;15.10;;;;;;;39.11;37.68;101187.84;5054151;28;20516;-70
2022/10/15 07:46:11;;;;;;;24.83;12.50;;;;;;;39.34;37.64;101179.72;5075432;28;20453;-70
2022/10/15 07:48:37;;;;;;;22.07;12.97;;;;;;;40.13;36.29;101179.09;5091142;28;20428;-70
2022/10/15 07:51:06;;;;;;;20.57;12.10;;;;;;;40.49;35.35;101178.94;5091522;28;20428;-71
2022/10/15 07:53:32;;;;;;;18.67;12.87;;;;;;;40.45;35.44;101180.63;5071118;28;20998;-70
2022/10/15 07:56:00;;;;;;;30.17;13.10;;;;;;;40.96;34.79;101181.91;5073566;28;20425;-70
2022/10/15 07:58:29;;;;;;;15.37;12.40;;;;;;;40.49;35.17;101178.94;5074164;28;20433;-72
2022/10/15 08:00:59;;;;;;;17.70;11.80;;;;;;;40.70;34.64;101171.78;5090852;28;20515;-70
2022/10/15 08:03:25;;;;;;;20.73;10.13;;;;;;;40.34;35.25;101174.72;5086469;28;20453;-70
2022/10/15 08:05:52;;;;;;;13.90;9.27;;;;;;;39.83;36.32;101173.34;5078331;28;20424;-73
2022/10/15 08:08:19;;;;;;;18.53;10.43;;;;;;;40.03;35.69;101164.66;5081002;28;20425;-76
2022/10/15 08:10:46;;;;;;;28.03;12.90;;;;;;;40.20;35.58;101172.09;5078897;28;20405;-74
2022/10/15 08:13:12;;;;;;;20.73;11.37;;;;;;;40.59;35.16;101181.34;5045785;28;20495;-73
2022/10/15 08:15:39;;;;;;;13.70;9.80;;;;;;;39.86;35.91;101174.66;5081687;28;20417;-74
2022/10/15 08:18:06;;;;;;;14.70;10.13;;;;;;;39.73;35.87;101173.63;5085126;28;20953;-73
2022/10/15 08:20:32;;;;;;;26.80;9.20;;;;;;;40.55;35.00;101177.66;5076439;28;20445;-77
2022/10/15 08:22:58;;;;;;;24.03;9.07;;;;;;;40.94;34.39;101181.41;5084973;28;20990;-72
2022/10/15 08:25:24;;;;;;;11.60;8.70;;;;;;;41.27;33.42;101181.72;5085111;28;20405;-75
2022/10/15 08:27:52;;;;;;;15.90;9.10;;;;;;;41.23;33.95;101187.00;5085978;28;20838;-75
2022/10/15 08:30:19;;;;;;;19.37;12.50;;;;;;;41.03;33.94;101183.00;5083438;28;20405;-75
2022/10/15 08:32:45;;;;;;;16.70;8.83;;;;;;;41.66;33.31;101182.63;5084616;28;20446;-74
2022/10/15 08:35:11;;;;;;;18.00;9.37;;;;;;;41.03;33.51;101171.34;5081937;28;20832;-72
2022/10/15 08:37:36;;;;;;;18.87;9.33;;;;;;;41.14;33.54;101185.44;5074294;28;20567;-73
2022/10/15 08:40:05;;;;;;;25.53;10.10;;;;;;;40.88;33.71;101188.09;5074223;28;20425;-73
2022/10/15 08:42:43;;;;;;;9.63;7.77;;;;;;;41.41;32.74;101189.75;5102765;28;20548;-72
2022/10/15 08:45:33;;;;;;;16.37;8.57;;;;;;;41.48;32.51;101192.78;5097801;28;20504;-73
2022/10/15 08:48:15;;;;;;;15.43;7.77;;;;;;;41.68;32.54;101189.38;5085560;28;20528;-74
2022/10/15 08:51:09;;;;;;;12.07;8.60;;;;;;;41.67;32.69;101201.38;5095341;28;20455;-73
2022/10/15 08:53:42;;;;;;;19.73;8.73;;;;;;;42.15;31.85;101200.28;5097607;28;20423;-74
2022/10/15 08:56:23;;;;;;;16.17;9.77;;;;;;;42.32;31.60;101213.84;5111397;28;20451;-73
2022/10/15 08:59:16;;;;;;;17.20;8.73;;;;;;;42.22;32.43;101208.75;5102189;28;20891;-75
2022/10/15 09:01:58;;;;;;;13.07;8.97;;;;;;;42.52;31.83;101203.31;5105104;28;20412;-73
2022/10/15 09:04:54;;;;;;;10.83;7.50;;;;;;;42.56;31.58;101207.00;5086627;28;20444;-73
2022/10/15 09:07:29;;;;;;;12.10;7.63;;;;;;;42.43;32.18;101219.75;5086337;28;20812;-74
2022/10/15 09:10:09;;;;;;;15.73;8.90;;;;;;;42.63;31.78;101220.94;5103838;28;20984;-74
2022/10/15 09:12:54;;;;;;;13.23;7.90;;;;;;;42.78;31.44;101227.72;5082465;28;20432;-72
2022/10/15 09:15:22;;;;;;;15.30;10.57;;;;;;;42.31;32.49;101225.09;5115238;28;20933;-74
2022/10/15 09:17:50;;;;;;;19.20;8.67;;;;;;;42.51;31.88;101229.78;5096185;28;20955;-73
2022/10/15 09:20:38;;;;;;;15.23;8.20;;;;;;;42.32;32.10;101226.69;5097140;28;20841;-74
2022/10/15 09:23:16;;;;;;;13.80;7.80;;;;;;;42.49;31.56;101232.06;5094559;28;20459;-74
2022/10/15 09:25:47;;;;;;;12.30;8.40;;;;;;;42.56;31.75;101217.91;5076462;28;20460;-71
2022/10/15 09:28:17;;;;;;;19.83;9.73;;;;;;;42.31;32.17;101233.28;5076945;28;20427;-72
2022/10/15 09:30:54;;;;;;;13.83;8.50;;;;;;;42.01;32.50;101221.50;5095007;28;20403;-72
2022/10/15 09:33:36;;;;;;;16.40;9.70;;;;;;;42.33;32.18;101222.84;5076785;28;20445;-72
2022/10/15 09:36:42;;;;;;;18.17;8.70;;;;;;;42.12;32.66;101222.75;5076598;28;20448;-71
2022/10/15 09:39:22;;;;;;;17.17;10.20;;;;;;;42.29;32.56;101219.94;5076716;28;20412;-72
2022/10/15 09:42:00;;;;;;;22.57;9.30;;;;;;;42.43;32.28;101218.94;5075060;28;20468;-72
2022/10/15 09:44:35;;;;;;;16.53;7.87;;;;;;;42.21;32.33;101217.28;5070680;28;20508;-72
2022/10/15 09:47:01;;;;;;;14.93;7.73;;;;;;;42.46;32.24;101215.53;5087671;28;20426;-72
2022/10/15 09:49:27;;;;;;;13.43;9.17;;;;;;;42.22;32.44;101200.59;5070978;28;20451;-73
2022/10/15 09:52:11;;;;;;;19.50;8.00;;;;;;;42.45;32.19;101200.31;5072459;28;20485;-72
2022/10/15 09:54:55;;;;;;;14.70;7.50;;;;;;;41.93;32.63;101198.63;5072349;28;20387;-73
2022/10/15 09:57:22;;;;;;;15.33;8.53;;;;;;;42.33;32.43;101198.28;5072153;28;20475;-73
2022/10/15 09:59:53;;;;;;;12.53;7.07;;;;;;;42.00;32.33;101187.22;5072487;28;20449;-72
2022/10/15 10:02:22;;;;;;;7.83;6.10;;;;;;;41.92;32.58;101183.38;5072586;28;20437;-71
2022/10/15 10:04:48;;;;;;;13.90;6.40;;;;;;;42.08;32.13;101187.16;5072500;28;20448;-71
2022/10/15 10:07:28;;;;;;;14.57;7.00;;;;;;;42.07;31.64;101188.28;5072433;28;20411;-71
2022/10/15 10:10:02;;;;;;;14.60;7.97;;;;;;;42.19;31.94;101182.19;5072433;28;20478;-72
2022/10/15 10:12:32;;;;;;;14.80;6.60;;;;;;;42.06;31.70;101183.97;5072413;28;20454;-72
2022/10/15 10:15:18;;;;;;;11.40;6.63;;;;;;;42.03;31.74;101172.91;5072456;28;20429;-71
2022/10/15 10:17:52;;;;;;;11.83;6.43;;;;;;;41.80;32.05;101164.19;5072333;28;20822;-70
2022/10/15 10:20:20;;;;;;;16.40;7.03;;;;;;;42.45;31.43;101162.13;5072173;28;20454;-70
2022/10/15 10:23:23;;;;;;;14.17;7.80;;;;;;;42.09;32.51;101158.78;5072263;28;20453;-71
2022/10/15 10:25:49;;;;;;;14.70;7.97;;;;;;;42.18;32.11;101149.81;5055673;28;20452;-70
2022/10/15 10:28:29;;;;;;;16.53;9.33;;;;;;;42.46;32.02;101141.91;5072188;28;20508;-70
2022/10/15 10:30:55;;;;;;;17.73;7.10;;;;;;;42.04;32.11;101134.44;5072065;28;20421;-71
2022/10/15 10:33:36;;;;;;;14.90;6.13;;;;;;;42.18;32.27;101131.53;5073681;28;20437;-70
2022/10/15 10:36:05;;;;;;;11.30;7.80;;;;;;;42.49;32.03;101127.63;5071994;28;20186;-71
2022/10/15 10:38:34;;;;;;;11.67;7.03;;;;;;;42.22;32.00;101121.53;5071802;28;20402;-70
2022/10/15 10:41:10;;;;;;;16.43;7.90;;;;;;;42.16;32.32;101103.78;5073592;28;20408;-71
2022/10/15 10:43:39;;;;;;;12.13;7.07;;;;;;;42.25;32.60;101122.81;5064747;28;20482;-71
2022/10/15 10:46:17;;;;;;;13.73;7.50;;;;;;;42.25;32.29;101114.63;5051910;28;20411;-71
2022/10/15 10:48:49;;;;;;;21.27;8.63;;;;;;;42.53;31.90;101104.78;5051766;28;20427;-71
2022/10/15 10:51:24;;;;;;;16.37;8.63;;;;;;;42.31;32.75;101103.19;5051736;28;20501;-70
2022/10/15 10:53:57;;;;;;;14.80;9.40;;;;;;;42.62;32.02;101086.47;5051699;28;20451;-71
2022/10/15 10:56:32;;;;;;;18.10;8.40;;;;;;;42.08;33.19;101093.69;5051731;28;20522;-70
2022/10/15 10:59:18;;;;;;;12.97;9.00;;;;;;;42.04;33.19;101104.44;5052925;28;20418;-70
2022/10/15 11:01:44;;;;;;;16.40;9.97;;;;;;;42.26;32.58;101091.69;5051845;28;20457;-70
2022/10/15 11:04:23;;;;;;;16.33;7.97;;;;;;;42.20;32.80;101096.53;5051426;28;20443;-70
2022/10/15 11:07:07;;;;;;;14.87;8.27;;;;;;;41.88;33.18;101084.34;5053220;28;20472;-70
2022/10/15 11:09:48;;;;;;;14.13;9.70;;;;;;;41.88;32.95;101089.81;5051524;28;20405;-71
2022/10/15 11:12:34;;;;;;;17.73;8.57;;;;;;;42.12;32.73;101079.09;5051398;28;20419;-71
2022/10/15 11:15:13;;;;;;;30.37;9.13;;;;;;;42.53;32.18;101072.06;5066506;28;20456;-71
2022/10/15 11:18:26;;;;;;;12.83;7.67;;;;;;;41.81;33.43;101073.97;5073241;28;20902;-70
2022/10/15 11:21:16;;;;;;;17.83;9.00;;;;;;;42.07;32.68;101073.03;5067328;28;20911;-71
2022/10/15 11:24:00;;;;;;;23.20;9.13;;;;;;;41.86;32.87;101065.59;5071277;28;20462;-72
2022/10/15 11:26:47;;;;;;;14.03;8.00;;;;;;;41.71;33.43;101055.25;5072797;28;20402;-70
2022/10/15 11:29:33;;;;;;;18.37;10.40;;;;;;;42.37;32.49;101060.97;5071286;28;20930;-70
2022/10/15 11:32:34;;;;;;;16.27;8.50;;;;;;;42.60;32.17;101052.47;5072818;28;20398;-70